Latest Weather Observations for Bathurst Airport

IDN60801

Issued at 7:53 pm EST Sunday 10 May 2026 (issued every 10 minutes, with the page automatically refreshed every 10 minutes)

About weather observations | Map of weather stations | Latest weather observations for NSW | Other Formats
Station Details ID: 063291 Name: BATHURST AIRPORT AWS Lat: -33.41 Lon: 149.65 Height: 744.5 m
Data from the previous 72 hours. | See also: Recent months at Bathurst Airport
Date/Time
EST
Temp
°C
App
Temp
°C
Dew
Point
°C
Rel
Hum
%
Delta-T
°C
Wind Press
QNH
hPa
Press
MSL
hPa
Rain since
9am
mm
Dir  Spd
km/h
Gust
km/h
Spd
kts
Gust
kts
10/07:30pm 13.2 10.1 8.9 75 2.3 E 15 20 8 11 1031.1 1031.1 0.0
10/07:00pm 13.6 11.6 8.7 72 2.5 ESE 9 13 5 7 1030.8 1030.8 0.0
10/06:30pm 14.0 11.6 8.6 70 2.8 ESE 11 13 6 7 1030.5 1030.5 0.0
10/06:00pm 14.6 11.9 8.8 68 3.0 SE 13 17 7 9 1029.9 1029.9 0.0
10/05:30pm 15.4 12.6 8.6 64 3.6 ESE 13 17 7 9 1029.5 1029.5 0.0
10/05:00pm 17.1 15.1 8.8 58 4.4 ESE 9 11 5 6 1029.1 1029.0 0.0
10/04:30pm 19.1 15.8 8.1 49 5.9 NE 15 19 8 10 1028.7 1028.7 0.0
10/04:00pm 20.4 18.8 8.1 45 6.6 N 6 9 3 5 1028.3 1028.3 0.0
10/03:30pm 20.4 19.6 8.1 45 6.6 ENE 2 7 1 4 1028.1 1028.0 0.0
10/03:00pm 19.7 17.9 8.1 47 6.2 S 7 13 4 7 1027.9 1027.8 0.0
10/02:30pm 19.6 18.0 8.0 47 6.2 ESE 6 11 3 6 1028.0 1027.9 0.0
10/02:00pm 20.2 19.4 8.2 46 6.4 E 2 9 1 5 1028.0 1027.9 0.0
10/01:30pm 19.2 17.5 8.2 49 5.9 SE 7 13 4 7 1028.2 1028.2 0.0
10/01:00pm 19.2 17.6 8.2 49 5.9 W 6 9 3 5 1028.5 1028.5 0.0
10/12:30pm 18.1 16.3 8.1 52 5.3 WNW 7 11 4 6 1028.8 1028.8 0.0
10/12:00pm 17.4 15.7 8.3 55 4.8 W 7 13 4 7 1029.3 1029.3 0.0
10/11:30am 15.7 13.8 7.5 58 4.2 W 7 11 4 6 1029.8 1029.8 0.0
10/11:00am 14.0 12.3 7.5 65 3.3 W 6 9 3 5 1030.1 1030.1 0.0
10/10:30am 12.5 11.2 7.6 72 2.5 W 4 7 2 4 1030.3 1030.3 0.0
10/10:00am 10.7 9.6 6.8 77 1.9 WNW 2 7 1 4 1030.5 1030.5 0.0
10/09:30am 8.8 7.2 6.4 85 1.2 WSW 4 7 2 4 1030.3 1030.3 0.0
10/09:00am 7.2 4.9 5.7 90 0.7 SSW 7 9 4 5 1030.2 1030.2 0.0
10/08:30am 5.8 4.0 5.2 96 0.3 SSW 4 7 2 4 1030.0 1030.0 0.0
10/08:03am 4.2 2.8 3.8 97 0.2 CALM 0 0 0 0 1029.8 1029.8 0.0
10/08:00am 4.1 2.7 3.7 97 0.2 CALM 0 0 0 0 1029.8 1029.8 0.0
10/07:36am 3.1 1.6 2.8 98 0.1 CALM 0 0 0 0 1029.7 1029.7 0.0
10/07:30am 3.0 1.4 2.6 97 0.2 CALM 0 0 0 0 1029.7 1029.7 0.0
10/07:00am 2.5 0.8 2.1 97 0.2 CALM 0 0 0 0 1029.4 1029.4 0.0
10/06:30am 2.3 0.2 1.6 95 0.3 S 2 7 1 4 1029.0 1028.9 0.0
10/06:00am 3.4 0.2 3.0 97 0.2 S 9 11 5 6 1028.5 1028.5 0.0
10/05:30am 2.7 0.7 2.1 96 0.2 SSE 2 7 1 4 1028.2 1028.2 0.0
10/05:00am 3.6 1.0 3.3 98 0.1 S 6 11 3 6 1027.9 1027.8 0.0
10/04:45am 3.3 1.8 3.0 98 0.1 CALM 0 0 0 0 1027.9 1027.8 0.0
10/04:30am 2.9 1.3 2.5 97 0.2 CALM 0 0 0 0 1027.8 1027.7 0.0
10/04:29am 2.9 1.3 2.5 97 0.2 CALM 0 0 0 0 1027.8 1027.7 0.0
10/04:23am 2.7 1.0 2.1 96 0.2 CALM 0 0 0 0 1027.7 1027.6 0.0
10/04:17am 2.9 1.3 2.3 96 0.2 CALM 0 0 0 0 1027.7 1027.6 0.0
10/04:00am 3.0 0.2 2.3 95 0.3 S 6 9 3 5 1027.4 1027.4 0.0
10/03:30am 4.0 2.5 3.1 94 0.4 CALM 0 7 0 4 1027.3 1027.3 0.0
10/03:00am 4.7 0.5 3.8 94 0.4 SE 15 19 8 10 1027.2 1027.2 0.0
10/02:30am 4.9 3.6 3.9 93 0.4 CALM 0 0 0 0 1027.3 1027.3 0.0
10/02:00am 5.4 4.2 4.4 93 0.4 CALM 0 0 0 0 1027.4 1027.4 0.0
10/01:30am 5.3 4.0 4.3 93 0.4 CALM 0 0 0 0 1027.4 1027.4 0.0
10/01:00am 4.6 3.1 2.9 89 0.7 CALM 0 0 0 0 1027.3 1027.3 0.0
10/12:30am 5.7 4.4 4.3 91 0.6 CALM 0 0 0 0 1027.3 1027.3 0.0
10/12:00am 5.6 4.4 4.4 92 0.5 CALM 0 0 0 0 1027.4 1027.4 0.0
 
Date/Time
EST
Temp
°C
App
Temp
°C
Dew
Point
°C
Rel
Hum
%
Delta-T
°C
Wind Press
QNH
hPa
Press
MSL
hPa
Rain since
9am
mm
Dir  Spd
km/h
Gust
km/h
Spd
kts
Gust
kts
09/11:30pm 5.3 4.0 4.0 91 0.6 CALM 0 0 0 0 1027.3 1027.3 0.0
09/11:00pm 5.7 4.4 4.0 89 0.8 CALM 0 0 0 0 1027.3 1027.3 0.0
09/10:30pm 7.0 4.5 4.7 85 1.1 SSE 7 11 4 6 1027.2 1027.2 0.0
09/10:00pm 7.3 6.2 5.0 85 1.1 CALM 0 0 0 0 1027.2 1027.2 0.0
09/09:30pm 8.0 6.5 5.1 82 1.3 SSW 2 6 1 3 1027.2 1027.2 0.0
09/09:00pm 9.1 7.0 5.7 79 1.6 S 6 9 3 5 1027.1 1027.1 0.0
09/08:30pm 8.4 7.2 4.6 77 1.8 CALM 0 0 0 0 1027.1 1027.1 0.0
09/08:00pm 9.0 8.0 5.7 80 1.6 CALM 0 0 0 0 1027.0 1027.0 0.0
09/07:30pm 9.7 8.9 6.6 81 1.5 CALM 0 0 0 0 1026.7 1026.6 0.0
09/07:00pm 11.4 8.9 6.5 72 2.4 S 9 11 5 6 1026.5 1026.4 0.0
09/06:30pm 11.6 9.1 6.7 72 2.4 SSW 9 13 5 7 1025.9 1025.9 0.0
09/06:00pm 12.6 10.5 6.6 67 3.0 SW 7 11 4 6 1025.5 1025.4 0.0
09/05:30pm 14.2 11.9 5.6 56 4.2 ESE 7 9 4 5 1025.1 1025.0 0.0
09/05:00pm 15.6 13.2 5.2 50 5.1 SE 7 9 4 5 1024.9 1024.8 0.0
09/04:30pm 16.6 15.2 5.6 48 5.5 S 2 7 1 4 1024.7 1024.6 0.0
09/04:00pm 17.3 14.9 5.3 45 6.0 W 7 11 4 6 1024.5 1024.4 0.0
09/03:30pm 17.1 13.8 4.8 44 6.1 SSW 11 15 6 8 1024.5 1024.4 0.0
09/03:00pm 17.9 15.1 5.2 43 6.3 SW 9 11 5 6 1024.3 1024.2 0.0
09/02:30pm 17.0 14.4 4.0 42 6.3 SSW 7 13 4 7 1024.3 1024.2 0.0
09/02:00pm 17.7 15.5 5.3 44 6.2 WNW 6 13 3 7 1024.2 1024.1 0.0
09/01:30pm 16.9 14.4 4.6 44 6.1 WSW 7 13 4 7 1024.4 1024.3 0.0
09/01:00pm 16.6 13.3 4.6 45 5.9 W 11 17 6 9 1024.7 1024.6 0.0
09/12:30pm 16.5 14.2 4.9 46 5.7 WNW 6 15 3 8 1025.1 1025.0 0.0
09/12:00pm 15.5 13.1 5.4 51 5.0 WSW 7 11 4 6 1025.6 1025.5 0.0
09/11:30am 14.6 12.3 5.9 56 4.3 W 7 15 4 8 1025.9 1025.9 0.0
09/11:00am 14.3 12.9 7.4 63 3.5 WSW 4 9 2 5 1026.2 1026.1 0.0
09/10:30am 12.7 10.7 6.3 65 3.2 SSE 6 11 3 6 1026.3 1026.2 0.0
09/10:00am 11.5 9.5 7.0 74 2.2 WSW 7 11 4 6 1026.4 1026.3 0.0
09/09:30am 10.6 8.9 7.5 81 1.6 SW 6 9 3 5 1026.4 1026.3 0.0
09/09:00am 9.2 7.7 7.0 86 1.1 WSW 4 7 2 4 1026.5 1026.4 0.0
09/08:30am 8.1 7.3 6.4 89 0.8 CALM 0 0 0 0 1026.4 1026.3 0.0
09/08:00am 7.9 7.0 6.0 88 0.9 CALM 0 0 0 0 1026.2 1026.1 0.0
09/07:30am 5.7 4.5 4.8 94 0.4 CALM 0 0 0 0 1025.8 1025.8 0.0
09/07:00am 5.6 3.1 4.7 94 0.4 S 7 11 4 6 1025.5 1025.4 0.0
09/06:30am 5.7 3.2 5.0 95 0.3 SSW 7 9 4 5 1025.1 1025.0 0.0
09/06:00am 6.0 3.5 4.6 91 0.6 SSW 7 9 4 5 1024.8 1024.7 0.0
09/05:30am 7.1 4.9 5.4 89 0.8 S 6 9 3 5 1024.4 1024.3 0.0
09/05:00am 7.3 5.1 5.3 87 0.9 SSW 6 7 3 4 1024.3 1024.2 0.0
09/04:30am 8.4 6.8 6.2 86 1.1 SW 4 6 2 3 1024.2 1024.1 0.0
09/04:00am 8.8 8.0 6.4 85 1.2 CALM 0 0 0 0 1024.2 1024.1 0.0
09/03:30am 8.9 7.0 6.7 86 1.1 SW 6 9 3 5 1024.2 1024.1 0.0
09/03:00am 8.9 7.1 7.0 88 0.9 WSW 6 9 3 5 1024.2 1024.1 0.0
09/02:30am 8.9 7.1 7.2 89 0.8 WNW 6 7 3 4 1024.2 1024.1 0.0
09/02:00am 8.9 8.3 7.2 89 0.8 CALM 0 0 0 0 1024.4 1024.3 0.0
09/01:30am 9.0 8.3 7.1 88 0.9 CALM 0 0 0 0 1024.3 1024.2 0.0
09/01:00am 9.0 7.6 7.1 88 0.9 NW 4 6 2 3 1024.3 1024.2 0.0
09/12:30am 9.0 7.6 7.1 88 0.9 NW 4 7 2 4 1024.2 1024.1 0.0
09/12:00am 8.8 7.7 7.1 89 0.8 NW 2 6 1 3 1024.2 1024.1 0.0
 
Date/Time
EST
Temp
°C
App
Temp
°C
Dew
Point
°C
Rel
Hum
%
Delta-T
°C
Wind Press
QNH
hPa
Press
MSL
hPa
Rain since
9am
mm
Dir  Spd
km/h
Gust
km/h
Spd
kts
Gust
kts
08/11:30pm 8.7 6.8 6.8 88 0.9 NW 6 7 3 4 1024.3 1024.2 0.0
08/11:00pm 9.0 8.3 6.8 86 1.1 CALM 0 0 0 0 1024.5 1024.4 0.0
08/10:30pm 9.1 7.0 6.5 84 1.3 SW 7 11 4 6 1024.5 1024.4 0.0
08/10:00pm 9.3 7.1 6.4 82 1.4 SSW 7 7 4 4 1024.5 1024.4 0.0
08/09:30pm 9.3 6.4 6.4 82 1.4 SW 11 13 6 7 1024.4 1024.3 0.0
08/09:00pm 9.4 8.2 6.3 81 1.5 SSW 2 9 1 5 1024.3 1024.2 0.0
08/08:30pm 9.4 6.9 6.5 82 1.4 SW 9 13 5 7 1024.1 1024.0 0.0
08/08:00pm 9.1 6.6 6.5 84 1.3 SW 9 13 5 7 1023.9 1023.8 0.0
08/07:30pm 9.0 6.5 6.6 85 1.2 SW 9 13 5 7 1023.5 1023.3 0.0
08/07:00pm 9.0 6.1 6.4 84 1.2 SW 11 15 6 8 1023.3 1023.1 0.0
08/06:30pm 9.0 5.3 6.3 83 1.3 WSW 15 19 8 10 1023.0 1022.9 0.0
08/06:00pm 8.9 5.9 6.2 83 1.3 WSW 11 13 6 7 1022.8 1022.7 0.0
08/05:40pm 8.8 5.1 6.1 83 1.3 WSW 15 19 8 10 1022.6 1022.5 0.0
08/05:30pm 8.7 4.9 6.0 83 1.3 WSW 15 20 8 11 1022.4 1022.3 0.0
08/05:00pm 8.6 5.2 6.1 84 1.2 SW 13 17 7 9 1022.4 1022.3 0.0
08/04:30pm 8.6 3.9 6.1 84 1.2 WSW 20 26 11 14 1022.1 1021.9 0.0
08/04:00pm 8.5 3.7 5.8 83 1.3 SW 20 26 11 14 1022.2 1022.0 0.0
08/03:30pm 8.6 3.1 5.7 82 1.4 WSW 24 33 13 18 1021.8 1021.6 0.0
08/03:00pm 8.6 3.4 5.7 82 1.4 WSW 22 32 12 17 1021.6 1021.5 0.0
08/02:30pm 8.9 3.7 5.3 78 1.7 WSW 22 30 12 16 1021.8 1021.6 0.0
08/02:00pm 9.0 3.4 5.6 79 1.6 SW 24 32 13 17 1021.6 1021.5 0.0
08/01:30pm 8.7 3.5 5.3 79 1.6 SW 22 30 12 16 1021.9 1021.7 0.0
08/01:00pm 9.0 4.2 5.4 78 1.7 SW 20 30 11 16 1021.9 1021.7 0.0
08/12:30pm 8.9 1.6 4.5 74 2.0 WSW 32 39 17 21 1022.2 1022.0 0.0
08/12:00pm 9.4 4.0 4.4 71 2.3 WSW 22 32 12 17 1022.3 1022.1 0.0
08/11:30am 9.1 4.7 4.5 73 2.1 WSW 17 26 9 14 1022.6 1022.5 0.0
08/11:00am 8.0 2.2 4.2 77 1.7 WSW 24 33 13 18 1023.0 1022.9 0.0
08/10:30am 7.4 2.4 4.5 82 1.3 SW 20 26 11 14 1023.4 1023.2 0.0
08/10:00am 6.7 2.9 4.0 83 1.2 WSW 13 20 7 11 1023.4 1023.2 0.0
08/09:30am 5.9 2.5 3.9 87 0.9 SW 11 15 6 8 1023.5 1023.3 0.0
08/09:00am 5.6 0.4 3.4 86 1.0 WSW 20 26 11 14 1023.4 1023.2 0.0
08/08:30am 5.9 0.8 3.1 82 1.2 WSW 19 22 10 12 1022.9 1022.8 0.0
08/08:00am 5.6 0.8 2.8 82 1.2 WSW 17 19 9 10 1022.8 1022.7 0.0
08/07:30am 5.2 0.8 2.6 83 1.1 SW 15 20 8 11 1022.7 1022.6 0.0
08/07:00am 4.8 1.1 2.2 83 1.1 SW 11 15 6 8 1022.3 1022.1 0.0
08/06:51am 4.7 0.6 2.1 83 1.1 WSW 13 17 7 9 1022.2 1022.0 0.0
08/06:32am 4.6 0.1 2.1 84 1.0 WSW 15 20 8 11 1022.0 1021.8 0.0
08/06:30am 4.6 0.5 2.1 84 1.0 WSW 13 17 7 9 1022.0 1021.8 0.0
08/06:02am 4.9 0.0 2.3 83 1.1 SW 17 22 9 12 1022.1 1021.9 0.0
08/06:00am 4.9 0.0 2.1 82 1.2 SW 17 22 9 12 1022.1 1021.9 0.0
08/05:30am 4.9 0.0 2.3 83 1.1 SW 17 20 9 11 1021.9 1021.7 0.0
08/05:00am 5.0 -0.4 2.4 83 1.1 SW 20 30 11 16 1021.8 1021.6 0.0
08/04:30am 4.5 0.0 2.0 84 1.0 WSW 15 20 8 11 1021.5 1021.4 0.0
08/04:00am 4.2 0.0 1.9 85 1.0 SW 13 15 7 8 1021.3 1021.2 0.0
08/03:30am 4.0 -0.6 1.5 84 1.0 SW 15 20 8 11 1021.8 1021.6 0.0
08/03:00am 3.5 -1.1 1.4 86 0.9 SW 15 20 8 11 1021.9 1021.7 0.0
08/02:30am 3.2 -0.8 0.8 84 1.0 WSW 11 17 6 9 1021.6 1021.5 0.0
08/02:00am 3.5 0.4 1.1 84 1.0 WSW 7 11 4 6 1022.0 1021.8 0.0
08/01:30am 3.6 -1.1 0.8 82 1.1 WSW 15 20 8 11 1022.2 1022.0 0.0
08/01:00am 3.0 -1.8 0.2 82 1.1 SW 15 19 8 10 1022.2 1022.0 0.0
08/12:30am 3.0 -1.8 0.2 82 1.1 SW 15 19 8 10 1022.2 1022.0 0.0
08/12:00am 2.5 -2.3 0.1 84 0.9 SW 15 20 8 11 1022.5 1022.4 0.0
 
Date/Time
EST
Temp
°C
App
Temp
°C
Dew
Point
°C
Rel
Hum
%
Delta-T
°C
Wind Press
QNH
hPa
Press
MSL
hPa
Rain since
9am
mm
Dir  Spd
km/h
Gust
km/h
Spd
kts
Gust
kts
07/11:30pm 2.4 -2.5 -0.4 82 1.1 WSW 15 19 8 10 1022.4 1022.3 0.0
07/11:00pm 2.2 -1.6 -0.4 83 1.0 WSW 9 13 5 7 1022.4 1022.3 0.0
07/10:30pm 3.0 -2.2 -0.1 80 1.2 SW 17 20 9 11 1022.5 1022.4 0.0
07/10:00pm 3.2 -3.0 -0.3 78 1.4 SW 22 28 12 15 1022.3 1022.1 0.0
07/09:30pm 4.0 -1.6 -0.2 74 1.7 WSW 19 26 10 14 1022.5 1022.4 0.0
07/09:00pm 3.6 -1.6 -0.2 76 1.5 WSW 17 20 9 11 1022.1 1021.9 0.0
07/08:30pm 3.8 -1.9 -0.6 73 1.7 SW 19 20 10 11 1022.1 1021.9 0.0
07/08:00pm 4.1 -1.2 -0.9 70 1.9 WSW 17 26 9 14 1022.1 1021.9 0.0

Other formats

Comma delimited format used in spreadsheet applications
http://www.bom.gov.au/fwo/IDN60801/IDN60801.94729.axf

JavaScript Object Notation format (JSON) in row-major order
http://www.bom.gov.au/fwo/IDN60801/IDN60801.94729.json

Data quality

Most of these data are generated automatically and are frequently updated. Quality checks on data are not normally performed. It is possible for incorrect values to appear. Refer to information at About Latest Weather Observations and please check the disclaimer before using these data.